createdAt,value
2018-03-24T00:00:33.998Z,78.60
2018-03-24T00:03:01.758Z,78.60
2018-03-24T00:05:29.588Z,78.50
2018-03-24T00:07:58.119Z,78.70
2018-03-24T00:10:25.876Z,78.70
2018-03-24T00:12:53.841Z,78.80
2018-03-24T00:15:21.552Z,78.90
2018-03-24T00:17:49.352Z,79.00
2018-03-24T00:20:17.200Z,79.20
2018-03-24T00:22:44.968Z,79.30
2018-03-24T00:25:12.845Z,79.50
2018-03-24T00:27:40.758Z,79.40
2018-03-24T00:30:08.643Z,79.40
2018-03-24T00:32:36.591Z,79.30
2018-03-24T00:35:04.662Z,79.60
2018-03-24T00:37:32.457Z,79.60
2018-03-24T00:40:00.294Z,79.60
2018-03-24T00:42:28.026Z,79.50
2018-03-24T00:44:55.673Z,79.70
2018-03-24T00:47:24.158Z,79.80
2018-03-24T00:49:52.438Z,79.70
2018-03-24T00:52:20.130Z,79.70
2018-03-24T00:54:47.786Z,79.90
2018-03-24T00:57:15.757Z,79.90
2018-03-24T00:59:43.638Z,79.80
2018-03-24T01:02:11.396Z,79.80
2018-03-24T01:04:40.533Z,79.90
2018-03-24T01:07:08.338Z,80.10
2018-03-24T01:09:36.263Z,80.10
2018-03-24T01:12:04.103Z,80.20
2018-03-24T01:14:31.827Z,80.10
2018-03-24T01:17:00.494Z,80.20
2018-03-24T01:19:28.304Z,80.20
2018-03-24T01:21:55.997Z,80.20
2018-03-24T01:24:23.707Z,80.20
2018-03-24T01:26:51.429Z,80.30
2018-03-24T01:29:19.332Z,80.50
2018-03-24T01:31:48.208Z,80.60
2018-03-24T01:34:16.076Z,80.60
2018-03-24T01:36:43.958Z,80.60
2018-03-24T01:39:11.835Z,80.90
2018-03-24T01:41:40.269Z,80.90
2018-03-24T01:44:08.579Z,80.80
2018-03-24T01:46:38.286Z,81.20
2018-03-24T01:49:06.930Z,81.50
2018-03-24T01:51:35.067Z,80.90
2018-03-24T01:54:03.668Z,80.60
2018-03-24T01:56:31.554Z,80.50
2018-03-24T01:58:59.316Z,80.40
2018-03-24T02:01:27.269Z,80.40
2018-03-24T02:03:55.172Z,80.40
2018-03-24T02:06:23.077Z,80.40
2018-03-24T02:08:50.935Z,80.50
2018-03-24T02:11:19.556Z,80.50
2018-03-24T02:13:47.432Z,80.50
2018-03-24T02:16:15.247Z,80.80
2018-03-24T02:18:43.189Z,80.80
2018-03-24T02:21:12.867Z,80.60
2018-03-24T02:23:40.853Z,80.40
2018-03-24T02:26:08.716Z,80.50
2018-03-24T02:28:36.698Z,80.60
2018-03-24T02:31:04.606Z,80.70
2018-03-24T02:33:32.609Z,80.90
2018-03-24T02:36:00.500Z,81.00
2018-03-24T02:38:28.190Z,81.00
2018-03-24T02:40:56.059Z,81.00
2018-03-24T02:43:23.917Z,81.00
2018-03-24T02:45:51.758Z,81.10
2018-03-24T02:48:19.628Z,81.20
2018-03-24T02:50:47.539Z,81.30
2018-03-24T02:53:15.500Z,81.50
2018-03-24T02:55:43.376Z,81.70
2018-03-24T02:58:11.403Z,81.60
2018-03-24T03:00:39.279Z,81.70
2018-03-24T03:03:07.149Z,81.80
2018-03-24T03:05:35.047Z,81.80
2018-03-24T03:08:02.894Z,81.70
2018-03-24T03:10:30.834Z,81.80
2018-03-24T03:12:58.625Z,81.80
2018-03-24T03:15:27.265Z,81.60
2018-03-24T03:17:55.111Z,81.40
2018-03-24T03:20:23.779Z,81.20
2018-03-24T03:22:51.691Z,81.20
2018-03-24T03:25:19.469Z,81.20
2018-03-24T03:27:47.209Z,81.30
2018-03-24T03:30:34.748Z,80.90
2018-03-24T03:33:02.758Z,80.60
2018-03-24T03:35:30.709Z,80.40
2018-03-24T03:37:58.567Z,80.50
2018-03-24T03:40:26.350Z,80.20
2018-03-24T03:42:54.343Z,79.80
2018-03-24T03:45:22.155Z,80.30
2018-03-24T03:47:50.070Z,79.60
2018-03-24T03:50:17.891Z,79.70
2018-03-24T03:52:45.730Z,79.90
2018-03-24T03:55:14.349Z,79.60
2018-03-24T03:57:42.265Z,79.50
2018-03-24T04:00:12.600Z,79.90
2018-03-24T04:02:40.591Z,80.00
2018-03-24T04:05:08.317Z,80.10
2018-03-24T04:07:36.059Z,80.00
2018-03-24T04:10:04.049Z,80.10
2018-03-24T04:12:32.659Z,80.20
2018-03-24T04:15:00.585Z,80.10
2018-03-24T04:17:28.471Z,79.90
2018-03-24T04:19:56.069Z,79.70
2018-03-24T04:22:23.889Z,79.60
2018-03-24T04:24:51.769Z,79.70
2018-03-24T04:27:19.617Z,79.80
2018-03-24T04:29:47.380Z,79.70
2018-03-24T04:32:15.304Z,80.40
2018-03-24T04:34:43.273Z,79.80
2018-03-24T04:37:11.343Z,79.60
2018-03-24T04:39:40.049Z,79.80
2018-03-24T04:42:08.111Z,79.90
2018-03-24T04:44:36.049Z,79.80
2018-03-24T04:47:04.635Z,79.80
2018-03-24T04:49:32.395Z,79.70
2018-03-24T04:52:00.483Z,80.00
2018-03-24T04:54:28.445Z,80.10
2018-03-24T04:56:56.300Z,80.10
2018-03-24T04:59:24.905Z,80.10
2018-03-24T05:01:53.641Z,80.30
2018-03-24T05:04:22.391Z,80.30
2018-03-24T05:06:50.328Z,80.70
2018-03-24T05:09:18.291Z,80.70
2018-03-24T05:11:46.071Z,80.70
2018-03-24T05:14:13.937Z,80.80
2018-03-24T05:16:41.791Z,81.00
2018-03-24T05:19:09.697Z,81.10
2018-03-24T05:21:38.348Z,82.30
2018-03-24T05:24:07.141Z,81.70
2018-03-24T05:26:35.849Z,81.20
2018-03-24T05:29:03.737Z,81.10
2018-03-24T05:31:31.529Z,81.00
2018-03-24T05:33:59.521Z,81.00
2018-03-24T05:36:27.379Z,81.10
2018-03-24T05:38:55.202Z,80.90
2018-03-24T05:41:22.995Z,81.00
2018-03-24T05:43:50.915Z,81.30
2018-03-24T05:46:18.812Z,81.30
2018-03-24T05:48:47.560Z,81.20
2018-03-24T05:51:16.373Z,81.10
2018-03-24T05:53:44.355Z,81.10
2018-03-24T05:56:12.338Z,81.00
2018-03-24T05:58:40.253Z,80.90
2018-03-24T06:01:08.784Z,80.70
2018-03-24T06:03:36.641Z,80.60
2018-03-24T06:06:04.508Z,80.70
2018-03-24T06:08:32.437Z,80.60
2018-03-24T06:11:00.299Z,80.30
2018-03-24T06:13:28.214Z,80.30
2018-03-24T06:15:56.200Z,80.00
2018-03-24T06:18:24.041Z,79.50
2018-03-24T06:20:51.729Z,78.90
2018-03-24T06:23:19.460Z,77.70
2018-03-24T06:25:48.837Z,77.00
2018-03-24T06:28:16.799Z,76.20
2018-03-24T06:30:48.265Z,76.00
2018-03-24T06:33:16.315Z,76.20
2018-03-24T06:35:44.923Z,74.40
2018-03-24T06:38:12.896Z,74.20
2018-03-24T06:40:40.841Z,73.50
2018-03-24T06:43:08.775Z,73.90
2018-03-24T06:45:36.517Z,74.10
2018-03-24T06:48:04.339Z,74.10
2018-03-24T06:50:32.978Z,73.60
2018-03-24T06:53:00.951Z,73.50
2018-03-24T06:55:28.897Z,73.70
2018-03-24T06:57:56.804Z,73.20
2018-03-24T07:00:25.215Z,73.00
2018-03-24T07:02:53.136Z,72.70
2018-03-24T07:05:20.966Z,72.60
2018-03-24T07:07:49.651Z,71.60
2018-03-24T07:10:17.621Z,71.50
2018-03-24T07:12:45.560Z,71.30
2018-03-24T07:15:13.335Z,71.30
2018-03-24T07:17:42.095Z,70.20
2018-03-24T07:20:10.850Z,69.70
2018-03-24T07:22:40.856Z,70.10
2018-03-24T07:25:08.879Z,70.10
2018-03-24T07:27:37.647Z,70.10
2018-03-24T07:30:05.624Z,69.70
2018-03-24T07:32:33.719Z,70.30
2018-03-24T07:35:02.424Z,69.90
2018-03-24T07:37:31.176Z,69.20
2018-03-24T07:40:00.124Z,69.10
2018-03-24T07:42:27.797Z,69.20
2018-03-24T07:44:55.653Z,69.00
2018-03-24T07:47:28.120Z,69.10
2018-03-24T07:49:56.798Z,67.20
2018-03-24T07:52:25.436Z,66.80
2018-03-24T07:54:53.253Z,66.70
2018-03-24T07:57:20.982Z,66.60
2018-03-24T07:59:48.793Z,64.90
2018-03-24T08:02:16.688Z,62.50
2018-03-24T08:04:44.420Z,62.80
2018-03-24T08:07:12.273Z,63.60
2018-03-24T08:09:40.394Z,64.00
2018-03-24T08:12:08.247Z,60.00
2018-03-24T08:14:36.171Z,59.70
2018-03-24T08:17:05.086Z,58.80
2018-03-24T08:19:33.045Z,58.90
2018-03-24T08:22:01.003Z,58.40
2018-03-24T08:24:30.363Z,59.80
2018-03-24T08:26:58.333Z,59.70
2018-03-24T08:29:26.368Z,59.70
2018-03-24T08:31:54.204Z,58.70
2018-03-24T08:34:26.330Z,58.50
2018-03-24T08:36:54.236Z,58.30
2018-03-24T08:39:23.802Z,57.80
2018-03-24T08:41:51.679Z,57.70
2018-03-24T08:44:19.580Z,58.40
2018-03-24T08:46:48.412Z,57.20
2018-03-24T08:49:16.267Z,57.20
2018-03-24T08:51:44.189Z,56.80
2018-03-24T08:54:12.227Z,56.60
2018-03-24T08:56:40.430Z,57.20
2018-03-24T08:59:08.390Z,57.20
2018-03-24T09:01:36.115Z,55.30
2018-03-24T09:04:03.938Z,54.80
2018-03-24T09:06:31.833Z,54.90
2018-03-24T09:08:59.631Z,54.10
2018-03-24T09:11:27.591Z,55.50
2018-03-24T09:13:55.985Z,53.50
2018-03-24T09:16:23.869Z,53.90
2018-03-24T09:18:51.733Z,54.30
2018-03-24T09:21:19.520Z,53.50
2018-03-24T09:23:47.186Z,53.60
2018-03-24T09:26:15.045Z,53.30
2018-03-24T09:28:43.551Z,53.70
2018-03-24T09:31:12.191Z,54.00
2018-03-24T09:33:39.945Z,54.00
2018-03-24T09:36:07.974Z,52.90
2018-03-24T09:38:35.875Z,50.60
2018-03-24T09:41:03.709Z,50.50
2018-03-24T09:43:32.157Z,49.60
2018-03-24T09:46:00.125Z,49.60
2018-03-24T09:48:27.795Z,50.00
2018-03-24T09:50:55.597Z,48.60
2018-03-24T09:53:23.283Z,49.40
2018-03-24T09:55:51.139Z,47.50
2018-03-24T09:58:19.005Z,45.50
2018-03-24T10:00:46.793Z,44.70
2018-03-24T10:03:14.834Z,45.60
2018-03-24T10:05:42.678Z,47.50
2018-03-24T10:08:10.714Z,47.40
2018-03-24T10:10:38.483Z,46.00
2018-03-24T10:13:06.310Z,46.70
2018-03-24T10:15:34.340Z,46.00
2018-03-24T10:18:02.581Z,45.40
2018-03-24T10:20:41.881Z,45.40
2018-03-24T10:23:15.428Z,46.10
2018-03-24T10:25:44.077Z,43.50
2018-03-24T10:28:11.936Z,43.50
2018-03-24T10:30:39.847Z,41.70
2018-03-24T10:33:07.863Z,39.30
2018-03-24T10:35:35.835Z,38.60
2018-03-24T10:38:04.552Z,35.00
2018-03-24T10:40:32.381Z,34.90
2018-03-24T10:43:05.754Z,34.20
2018-03-24T10:45:34.328Z,35.10
2018-03-24T10:48:02.167Z,35.10
2018-03-24T10:50:30.189Z,35.10
2018-03-24T10:52:59.294Z,33.30
2018-03-24T10:55:27.306Z,33.30
2018-03-24T10:57:55.188Z,34.40
2018-03-24T11:00:28.747Z,35.60
2018-03-24T11:02:57.012Z,35.60
2018-03-24T11:05:24.929Z,36.20
2018-03-24T11:07:52.825Z,35.00
2018-03-24T11:10:20.697Z,34.30
2018-03-24T11:12:48.429Z,33.30
2018-03-24T11:15:16.241Z,33.80
2018-03-24T11:17:44.101Z,33.50
2018-03-24T11:20:12.076Z,34.50
2018-03-24T11:22:39.983Z,33.30
2018-03-24T11:25:07.796Z,33.70
2018-03-24T11:27:35.685Z,33.80
2018-03-24T11:30:04.639Z,33.10
2018-03-24T11:32:32.512Z,32.70
2018-03-24T11:35:00.426Z,32.60
2018-03-24T11:37:28.256Z,33.20
2018-03-24T11:39:57.053Z,32.80
2018-03-24T11:42:24.987Z,32.70
2018-03-24T11:44:52.895Z,33.00
2018-03-24T11:47:21.594Z,32.50
2018-03-24T11:49:50.182Z,30.90
2018-03-24T11:52:18.231Z,30.90
2018-03-24T11:54:46.837Z,31.50
2018-03-24T11:57:14.822Z,31.60
2018-03-24T11:59:42.796Z,31.20
2018-03-24T12:02:10.888Z,30.50
2018-03-24T12:04:38.954Z,30.10
2018-03-24T12:07:06.930Z,30.80
2018-03-24T12:09:35.925Z,29.70
2018-03-24T12:12:03.729Z,29.70
2018-03-24T12:14:31.485Z,30.70
2018-03-24T12:16:59.260Z,32.30
2018-03-24T12:19:27.104Z,30.60
2018-03-24T12:21:54.813Z,30.60
2018-03-24T12:24:22.700Z,29.80
2018-03-24T12:26:50.874Z,28.40
2018-03-24T12:29:18.660Z,30.30
2018-03-24T12:31:47.088Z,30.50
2018-03-24T12:34:14.803Z,32.70
2018-03-24T12:36:42.456Z,30.40
2018-03-24T12:39:16.639Z,29.60
2018-03-24T12:41:45.828Z,30.00
2018-03-24T12:44:14.775Z,32.70
2018-03-24T12:46:42.628Z,30.60
2018-03-24T12:49:11.300Z,30.30
2018-03-24T12:51:39.726Z,31.50
2018-03-24T12:54:08.688Z,32.90
2018-03-24T12:56:36.542Z,32.80
2018-03-24T12:59:05.038Z,32.00
2018-03-24T13:01:32.742Z,32.00
2018-03-24T13:04:01.534Z,32.20
2018-03-24T13:06:29.406Z,32.10
2018-03-24T13:08:57.254Z,31.90
2018-03-24T13:11:25.228Z,32.30
2018-03-24T13:13:57.612Z,30.90
2018-03-24T13:16:26.286Z,30.90
2018-03-24T13:18:54.845Z,31.00
2018-03-24T13:21:23.082Z,30.90
2018-03-24T13:23:51.505Z,31.80
2018-03-24T13:26:19.230Z,31.70
2018-03-24T13:28:46.993Z,31.40
2018-03-24T13:31:14.660Z,30.70
2018-03-24T13:33:42.418Z,31.40
2018-03-24T13:36:10.156Z,31.00
2018-03-24T13:38:37.854Z,31.90
2018-03-24T13:41:05.506Z,30.20
2018-03-24T13:43:33.077Z,30.00
2018-03-24T13:46:00.666Z,31.30
2018-03-24T13:48:28.240Z,30.50
2018-03-24T13:50:56.092Z,30.10
2018-03-24T13:53:23.745Z,31.00
2018-03-24T13:55:51.508Z,30.20
2018-03-24T13:58:19.250Z,30.40
2018-03-24T14:00:47.099Z,29.80
2018-03-24T14:03:14.806Z,29.20
2018-03-24T14:05:42.562Z,30.00
2018-03-24T14:08:10.222Z,30.80
2018-03-24T14:10:38.032Z,30.20
2018-03-24T14:13:06.606Z,29.90
2018-03-24T14:15:34.308Z,29.90
2018-03-24T14:18:01.976Z,32.00
2018-03-24T14:20:29.655Z,31.00
2018-03-24T14:22:57.392Z,30.00
2018-03-24T14:25:25.189Z,30.00
2018-03-24T14:27:53.020Z,31.20
2018-03-24T14:30:20.920Z,30.70
2018-03-24T14:32:48.936Z,29.60
2018-03-24T14:35:19.209Z,31.20
2018-03-24T14:37:51.377Z,30.50
2018-03-24T14:40:19.161Z,30.30
2018-03-24T14:42:46.774Z,30.40
2018-03-24T14:45:15.151Z,31.00
2018-03-24T14:47:43.536Z,31.40
2018-03-24T14:50:11.229Z,31.30
2018-03-24T14:52:38.936Z,32.00
2018-03-24T14:55:06.894Z,31.60
2018-03-24T14:57:35.554Z,31.10
2018-03-24T15:00:03.944Z,31.10
2018-03-24T15:02:31.775Z,31.10
2018-03-24T15:04:59.714Z,32.20
2018-03-24T15:07:28.080Z,32.60
2018-03-24T15:09:56.042Z,33.90
2018-03-24T15:12:24.560Z,34.20
2018-03-24T15:14:52.266Z,34.20
2018-03-24T15:17:20.008Z,34.50
2018-03-24T15:19:47.984Z,34.40
2018-03-24T15:22:15.994Z,33.90
2018-03-24T15:24:44.142Z,34.60
2018-03-24T15:27:11.988Z,34.90
2018-03-24T15:29:51.584Z,34.70
2018-03-24T15:32:31.046Z,35.00
2018-03-24T15:35:10.320Z,34.70
2018-03-24T15:37:38.016Z,35.70
2018-03-24T15:40:06.498Z,35.90
2018-03-24T15:42:34.210Z,35.90
2018-03-24T15:45:02.624Z,35.70
2018-03-24T15:47:30.236Z,35.80
2018-03-24T15:49:57.941Z,35.10
2018-03-24T15:52:25.484Z,35.80
2018-03-24T15:54:53.132Z,35.50
2018-03-24T15:57:20.762Z,35.70
2018-03-24T15:59:48.589Z,35.30
2018-03-24T16:02:17.009Z,36.60
2018-03-24T16:04:44.772Z,36.10
2018-03-24T16:07:12.496Z,36.30
2018-03-24T16:09:41.290Z,36.20
2018-03-24T16:12:08.903Z,37.10
2018-03-24T16:14:36.571Z,37.40
2018-03-24T16:17:04.304Z,38.20
2018-03-24T16:19:31.911Z,38.60
2018-03-24T16:21:59.729Z,38.90
2018-03-24T16:24:27.304Z,39.10
2018-03-24T16:26:54.906Z,39.60
2018-03-24T16:29:22.718Z,39.40
2018-03-24T16:31:50.574Z,40.30
2018-03-24T16:34:18.245Z,40.50
2018-03-24T16:36:46.728Z,41.10
2018-03-24T16:39:14.541Z,41.00
2018-03-24T16:41:42.360Z,41.80
2018-03-24T16:44:10.906Z,43.30
2018-03-24T16:46:38.694Z,43.20
2018-03-24T16:49:06.526Z,43.80
2018-03-24T16:51:34.388Z,44.70
2018-03-24T16:54:02.182Z,45.10
2018-03-24T16:56:30.012Z,45.60
2018-03-24T16:58:57.827Z,46.10
2018-03-24T17:01:25.676Z,46.40
2018-03-24T17:03:53.272Z,46.70
2018-03-24T17:06:21.763Z,47.80
2018-03-24T17:08:49.481Z,47.70
2018-03-24T17:11:17.327Z,48.30
2018-03-24T17:13:45.188Z,48.10
2018-03-24T17:16:13.170Z,48.90
2018-03-24T17:18:41.030Z,49.30
2018-03-24T17:21:08.900Z,49.70
2018-03-24T17:23:36.788Z,50.10
2018-03-24T17:26:04.744Z,50.50
2018-03-24T17:28:32.574Z,50.70
2018-03-24T17:31:00.558Z,51.10
2018-03-24T17:33:28.318Z,51.20
2018-03-24T17:35:56.103Z,50.90
2018-03-24T17:38:23.809Z,51.20
2018-03-24T17:40:52.416Z,52.30
2018-03-24T17:43:20.232Z,52.20
2018-03-24T17:45:49.024Z,52.40
2018-03-24T17:48:17.066Z,52.80
2018-03-24T17:50:46.641Z,53.30
2018-03-24T17:53:14.582Z,53.20
2018-03-24T17:55:42.689Z,53.30
2018-03-24T17:58:10.566Z,53.60
2018-03-24T18:00:38.452Z,53.40
2018-03-24T18:03:06.338Z,53.70
2018-03-24T18:05:34.187Z,53.70
2018-03-24T18:08:02.161Z,53.60
2018-03-24T18:10:30.016Z,54.00
2018-03-24T18:12:57.923Z,54.20
2018-03-24T18:15:25.726Z,54.60
2018-03-24T18:17:53.728Z,54.80
2018-03-24T18:20:22.671Z,55.30
2018-03-24T18:22:50.890Z,55.90
2018-03-24T18:25:18.765Z,56.20
2018-03-24T18:27:46.680Z,56.70
2018-03-24T18:30:14.750Z,56.80
2018-03-24T18:32:42.732Z,56.90
2018-03-24T18:35:10.661Z,57.50
2018-03-24T18:37:38.711Z,57.90
2018-03-24T18:40:06.554Z,57.90
2018-03-24T18:42:34.508Z,58.20
2018-03-24T18:45:02.467Z,58.40
2018-03-24T18:47:30.258Z,58.20
2018-03-24T18:49:58.155Z,59.00
2018-03-24T18:52:26.037Z,58.80
2018-03-24T18:54:53.940Z,59.00
2018-03-24T18:57:22.110Z,59.20
2018-03-24T18:59:50.851Z,59.30
2018-03-24T19:02:18.859Z,59.20
2018-03-24T19:04:46.766Z,59.60
2018-03-24T19:07:14.736Z,59.80
2018-03-24T19:09:42.631Z,59.90
2018-03-24T19:12:10.522Z,59.70
2018-03-24T19:14:39.350Z,60.00
2018-03-24T19:17:07.368Z,60.00
2018-03-24T19:19:35.238Z,59.90
2018-03-24T19:22:03.481Z,60.50
2018-03-24T19:24:31.682Z,60.60
2018-03-24T19:26:59.918Z,60.70
2018-03-24T19:29:27.705Z,60.80
2018-03-24T19:31:55.524Z,61.00
2018-03-24T19:34:23.574Z,61.30
2018-03-24T19:36:51.596Z,61.80
2018-03-24T19:39:19.359Z,61.90
2018-03-24T19:41:47.460Z,62.20
2018-03-24T19:44:17.130Z,62.90
2018-03-24T19:46:44.960Z,62.80
2018-03-24T19:49:12.695Z,62.80
2018-03-24T19:51:40.580Z,63.30
2018-03-24T19:54:08.277Z,63.50
2018-03-24T19:56:37.042Z,63.60
2018-03-24T19:59:04.794Z,64.00
2018-03-24T20:01:32.706Z,64.60
2018-03-24T20:04:00.601Z,64.90
2018-03-24T20:06:28.404Z,65.10
2018-03-24T20:08:58.613Z,65.60
2018-03-24T20:11:26.415Z,65.50
2018-03-24T20:13:54.204Z,65.30
2018-03-24T20:16:23.022Z,65.50
2018-03-24T20:18:51.868Z,66.00
2018-03-24T20:21:19.688Z,66.40
2018-03-24T20:23:47.496Z,66.60
2018-03-24T20:26:15.371Z,66.80
2018-03-24T20:28:43.241Z,67.10
2018-03-24T20:31:11.161Z,67.10
2018-03-24T20:33:39.038Z,67.00
2018-03-24T20:36:06.970Z,67.30
2018-03-24T20:38:34.763Z,67.60
2018-03-24T20:41:02.605Z,68.00
2018-03-24T20:43:30.504Z,68.20
2018-03-24T20:45:58.446Z,68.00
2018-03-24T20:48:26.496Z,68.70
2018-03-24T20:50:54.248Z,68.90
2018-03-24T20:53:22.046Z,69.10
2018-03-24T20:55:49.942Z,69.10
2018-03-24T20:58:17.690Z,69.50
2018-03-24T21:00:45.621Z,69.50
2018-03-24T21:03:13.356Z,69.40
2018-03-24T21:05:41.280Z,69.60
2018-03-24T21:08:09.332Z,70.00
2018-03-24T21:10:37.136Z,70.20
2018-03-24T21:13:04.972Z,70.40
2018-03-24T21:15:32.710Z,70.70
2018-03-24T21:18:00.618Z,71.20
2018-03-24T21:20:28.578Z,72.00
2018-03-24T21:22:56.414Z,71.30
2018-03-24T21:25:25.106Z,71.60
2018-03-24T21:27:52.857Z,71.60
2018-03-24T21:30:20.763Z,71.70
2018-03-24T21:32:48.645Z,71.70
2018-03-24T21:35:16.638Z,71.90
2018-03-24T21:37:44.628Z,72.60
2018-03-24T21:40:12.570Z,72.50
2018-03-24T21:42:40.303Z,72.50
2018-03-24T21:45:08.106Z,72.40
2018-03-24T21:47:36.906Z,72.60
2018-03-24T21:50:04.841Z,72.60
2018-03-24T21:52:32.830Z,72.50
2018-03-24T21:55:02.137Z,72.70
2018-03-24T21:57:30.754Z,72.90
2018-03-24T21:59:58.596Z,72.80
2018-03-24T22:02:26.449Z,73.20
2018-03-24T22:04:55.098Z,73.70
2018-03-24T22:07:23.981Z,73.60
2018-03-24T22:09:52.677Z,74.50
2018-03-24T22:12:20.459Z,73.70
2018-03-24T22:14:48.242Z,73.10
2018-03-24T22:17:16.342Z,73.70
2018-03-24T22:19:44.198Z,73.80
2018-03-24T22:22:12.067Z,74.00
2018-03-24T22:24:40.076Z,74.10
2018-03-24T22:27:07.919Z,74.20
2018-03-24T22:29:35.746Z,74.30
2018-03-24T22:32:04.752Z,74.20
2018-03-24T22:34:32.671Z,74.10
2018-03-24T22:37:00.692Z,74.40
2018-03-24T22:39:28.539Z,74.50
2018-03-24T22:41:56.562Z,74.70
2018-03-24T22:44:24.494Z,74.90
2018-03-24T22:46:52.279Z,74.60
2018-03-24T22:49:19.895Z,74.60
2018-03-24T22:51:47.701Z,74.70
2018-03-24T22:54:15.288Z,75.30
2018-03-24T22:56:43.002Z,75.60
2018-03-24T22:59:10.909Z,75.50
2018-03-24T23:01:38.660Z,75.80
2018-03-24T23:04:06.579Z,75.60
2018-03-24T23:06:35.343Z,75.60
2018-03-24T23:09:02.986Z,76.30
2018-03-24T23:11:30.741Z,75.90
2018-03-24T23:13:58.741Z,76.10
2018-03-24T23:16:26.637Z,76.20
2018-03-24T23:18:55.023Z,76.70
2018-03-24T23:21:23.483Z,76.60
2018-03-24T23:23:51.328Z,76.40
2018-03-24T23:26:19.126Z,76.50
2018-03-24T23:28:46.879Z,76.60
2018-03-24T23:31:14.729Z,77.00
2018-03-24T23:33:43.456Z,77.10
2018-03-24T23:36:12.236Z,77.30
2018-03-24T23:38:40.118Z,77.20
2018-03-24T23:41:07.923Z,77.30
2018-03-24T23:43:35.806Z,77.30
2018-03-24T23:46:05.822Z,77.20
2018-03-24T23:48:33.965Z,77.60
2018-03-24T23:51:01.812Z,77.40
2018-03-24T23:53:29.672Z,77.10
2018-03-24T23:55:58.386Z,77.30
2018-03-24T23:58:26.355Z,77.30
